Frankfurt/Main, Germany

01:59 PM CEST am 23. April 2017 (GMT +0200)
Frankfurt | | Change Station

Höhe 0 ft 50.11 °N, 8.66 °E | Updated 4 minutes ago

Wolkig
Wolkig
57.4 °F
gefühlte 57.4 °F
N
0.6
Wind Wechselnd Wind aus Ost
Gusts 1.2 mph

Heute
Max. -- | schwach -- °F
--% Regenrisiko
Gestern
Max. -- | schwach -- °F
Precip. -- inch
Druck 30.27 inch
Sichtweite 6.2 Meilen
Wolken Few 4400 ft
Wolkig 6000 ft
Taupunkt 32 °F
Feuchtigkeit 38%
Regen 0.00 inch
Schneehöhe Nicht verfügbar..
6:16 AM 8:32 PM
Letztes Viertel, 12% visible
METAR EDDF 231150Z 23010KT 200V270 9999 FEW044 BKN060 09/M02 Q1025 NOSIG
Druck 30.27 inch
Sichtweite 6.2 Meilen
Wolken Few 4400 ft
Wolkig 6000 ft
Taupunkt 32 °F
Feuchtigkeit 38%
Regen 0.00 inch
Schneehöhe Nicht verfügbar..
6:16 AM 8:32 PM
Letztes Viertel, 12% visible
METAR EDDF 231150Z 23010KT 200V270 9999 FEW044 BKN060 09/M02 Q1025 NOSIG

Get Severe Weather Alerts

Thanks for signing up!

Be on the lookout for a verification email in your inbox.

You'll start receiving the daily forecast at 8 AM.

×

10-Day Weather Forecast

×

Almanac

Astronomie

Apr. 23, 2017 Aufgang Untergang
Genaue Zeit
Bürgerliche Dämmerung
Nautische Dämmerung
Astronomische Dämmerung
Mond
Länge des sichtbaren Lichts
Tageslänge
Tomorrow will be .
, % of the Moon is Illuminated

Heutige Rekorde

Country Highs Country Lows

Community

WunderPhotos

WunderBlog® & News

Nearby

Luftqualität

  Luftqualität LQ Index Schadstoff
Not available.

Schneehöhe

Station Depth Höhe

Erdbebenaktivität

Stadt Distance Mag. Time & Date
Minimum magnitude displayed is 2.5.

küstennahe Wassertemperaturen

Ort Temperatur

Stations

Wetterstationen in der Umgebung

Stationsstandort Temp. Windchill Taupunkt Feuchtigkeit Wind Precip. Höhe Aktualisiert Art